sensor_id;sensor_type;location;lat;lon;timestamp;P1;durP1;ratioP1;P2;durP2;ratioP2
10063;SDS011;5071;52.360;13.134;2023-04-12T00:00:56;1.60;;;0.90;;
10063;SDS011;5071;52.360;13.134;2023-04-12T00:05:58;2.53;;;1.40;;
10063;SDS011;5071;52.360;13.134;2023-04-12T00:11:01;2.27;;;1.43;;
10063;SDS011;5071;52.360;13.134;2023-04-12T00:16:05;1.47;;;1.20;;
10063;SDS011;5071;52.360;13.134;2023-04-12T00:21:09;1.63;;;0.93;;
10063;SDS011;5071;52.360;13.134;2023-04-12T00:26:11;4.27;;;1.50;;
10063;SDS011;5071;52.360;13.134;2023-04-12T00:31:15;3.30;;;1.30;;
10063;SDS011;5071;52.360;13.134;2023-04-12T00:36:17;1.40;;;1.23;;
10063;SDS011;5071;52.360;13.134;2023-04-12T00:41:20;1.30;;;1.20;;
10063;SDS011;5071;52.360;13.134;2023-04-12T00:46:23;4.40;;;1.30;;
10063;SDS011;5071;52.360;13.134;2023-04-12T00:51:26;2.07;;;1.00;;
10063;SDS011;5071;52.360;13.134;2023-04-12T00:56:28;2.30;;;1.60;;
10063;SDS011;5071;52.360;13.134;2023-04-12T01:01:31;3.13;;;1.33;;
10063;SDS011;5071;52.360;13.134;2023-04-12T01:06:36;2.80;;;1.17;;
10063;SDS011;5071;52.360;13.134;2023-04-12T01:11:50;1.40;;;1.10;;
10063;SDS011;5071;52.360;13.134;2023-04-12T01:17:07;1.37;;;0.90;;
10063;SDS011;5071;52.360;13.134;2023-04-12T01:22:20;2.00;;;1.30;;
10063;SDS011;5071;52.360;13.134;2023-04-12T01:27:38;1.73;;;1.30;;
10063;SDS011;5071;52.360;13.134;2023-04-12T01:32:44;3.57;;;1.53;;
10063;SDS011;5071;52.360;13.134;2023-04-12T01:37:50;2.00;;;0.90;;
10063;SDS011;5071;52.360;13.134;2023-04-12T01:43:04;2.80;;;1.40;;
10063;SDS011;5071;52.360;13.134;2023-04-12T01:48:07;0.97;;;0.80;;
10063;SDS011;5071;52.360;13.134;2023-04-12T01:53:11;1.80;;;1.47;;
10063;SDS011;5071;52.360;13.134;2023-04-12T01:58:20;2.43;;;1.20;;
10063;SDS011;5071;52.360;13.134;2023-04-12T02:03:23;1.83;;;1.33;;
10063;SDS011;5071;52.360;13.134;2023-04-12T02:08:26;1.60;;;1.40;;
10063;SDS011;5071;52.360;13.134;2023-04-12T02:13:30;1.87;;;1.50;;
10063;SDS011;5071;52.360;13.134;2023-04-12T02:18:32;2.20;;;1.07;;
10063;SDS011;5071;52.360;13.134;2023-04-12T02:23:35;4.07;;;1.47;;
10063;SDS011;5071;52.360;13.134;2023-04-12T02:28:38;2.17;;;1.00;;
10063;SDS011;5071;52.360;13.134;2023-04-12T02:33:41;1.50;;;1.10;;
10063;SDS011;5071;52.360;13.134;2023-04-12T02:38:43;2.57;;;1.60;;
10063;SDS011;5071;52.360;13.134;2023-04-12T02:43:47;1.27;;;1.17;;
10063;SDS011;5071;52.360;13.134;2023-04-12T02:48:49;2.37;;;1.30;;
10063;SDS011;5071;52.360;13.134;2023-04-12T02:53:51;3.00;;;1.60;;
10063;SDS011;5071;52.360;13.134;2023-04-12T02:58:55;3.60;;;1.43;;
10063;SDS011;5071;52.360;13.134;2023-04-12T03:03:57;2.23;;;1.33;;
10063;SDS011;5071;52.360;13.134;2023-04-12T03:08:59;1.70;;;1.03;;
10063;SDS011;5071;52.360;13.134;2023-04-12T03:14:03;2.30;;;1.07;;
10063;SDS011;5071;52.360;13.134;2023-04-12T03:19:05;1.30;;;1.20;;
10063;SDS011;5071;52.360;13.134;2023-04-12T03:24:07;3.43;;;1.43;;
10063;SDS011;5071;52.360;13.134;2023-04-12T03:29:15;2.53;;;1.70;;
10063;SDS011;5071;52.360;13.134;2023-04-12T03:34:17;2.30;;;1.47;;
10063;SDS011;5071;52.360;13.134;2023-04-12T03:39:19;4.20;;;1.87;;
10063;SDS011;5071;52.360;13.134;2023-04-12T03:44:23;2.33;;;1.80;;
10063;SDS011;5071;52.360;13.134;2023-04-12T03:49:25;2.07;;;1.40;;
10063;SDS011;5071;52.360;13.134;2023-04-12T03:54:27;2.27;;;1.60;;
10063;SDS011;5071;52.360;13.134;2023-04-12T03:59:30;6.20;;;1.77;;
10063;SDS011;5071;52.360;13.134;2023-04-12T04:04:32;3.17;;;1.67;;
10063;SDS011;5071;52.360;13.134;2023-04-12T04:09:34;3.20;;;1.43;;
10063;SDS011;5071;52.360;13.134;2023-04-12T04:14:37;3.03;;;1.83;;
10063;SDS011;5071;52.360;13.134;2023-04-12T04:19:40;3.63;;;1.73;;
10063;SDS011;5071;52.360;13.134;2023-04-12T04:24:42;2.10;;;1.53;;
10063;SDS011;5071;52.360;13.134;2023-04-12T04:29:46;3.03;;;1.77;;
10063;SDS011;5071;52.360;13.134;2023-04-12T04:34:47;3.63;;;2.13;;
10063;SDS011;5071;52.360;13.134;2023-04-12T04:39:57;6.77;;;2.00;;
10063;SDS011;5071;52.360;13.134;2023-04-12T04:45:00;2.97;;;1.90;;
10063;SDS011;5071;52.360;13.134;2023-04-12T04:50:03;3.90;;;1.83;;
10063;SDS011;5071;52.360;13.134;2023-04-12T04:55:06;5.77;;;2.63;;
10063;SDS011;5071;52.360;13.134;2023-04-12T05:00:13;5.00;;;2.50;;
10063;SDS011;5071;52.360;13.134;2023-04-12T05:05:16;4.30;;;2.13;;
10063;SDS011;5071;52.360;13.134;2023-04-12T05:10:18;4.50;;;2.33;;
10063;SDS011;5071;52.360;13.134;2023-04-12T05:15:21;2.77;;;1.87;;
10063;SDS011;5071;52.360;13.134;2023-04-12T05:20:23;3.03;;;1.90;;
10063;SDS011;5071;52.360;13.134;2023-04-12T05:25:26;2.90;;;2.07;;
10063;SDS011;5071;52.360;13.134;2023-04-12T05:30:32;5.17;;;2.50;;
10063;SDS011;5071;52.360;13.134;2023-04-12T05:35:34;3.70;;;2.67;;
10063;SDS011;5071;52.360;13.134;2023-04-12T05:40:36;4.53;;;2.50;;
10063;SDS011;5071;52.360;13.134;2023-04-12T05:45:39;3.30;;;1.80;;
10063;SDS011;5071;52.360;13.134;2023-04-12T05:50:45;3.00;;;1.60;;
10063;SDS011;5071;52.360;13.134;2023-04-12T05:55:51;1.83;;;1.37;;
10063;SDS011;5071;52.360;13.134;2023-04-12T06:00:54;1.13;;;1.13;;
10063;SDS011;5071;52.360;13.134;2023-04-12T06:05:57;1.52;;;1.40;;
10063;SDS011;5071;52.360;13.134;2023-04-12T06:10:59;1.33;;;1.23;;
10063;SDS011;5071;52.360;13.134;2023-04-12T06:16:02;2.70;;;1.50;;
10063;SDS011;5071;52.360;13.134;2023-04-12T06:21:05;3.20;;;1.80;;
10063;SDS011;5071;52.360;13.134;2023-04-12T06:26:07;1.97;;;1.53;;
10063;SDS011;5071;52.360;13.134;2023-04-12T06:31:11;1.87;;;1.50;;
10063;SDS011;5071;52.360;13.134;2023-04-12T06:36:16;2.17;;;1.40;;
10063;SDS011;5071;52.360;13.134;2023-04-12T06:41:18;2.50;;;1.40;;
10063;SDS011;5071;52.360;13.134;2023-04-12T06:46:25;3.17;;;1.60;;
10063;SDS011;5071;52.360;13.134;2023-04-12T06:51:28;5.70;;;1.73;;
10063;SDS011;5071;52.360;13.134;2023-04-12T06:56:30;3.13;;;1.50;;
10063;SDS011;5071;52.360;13.134;2023-04-12T07:01:34;2.17;;;1.63;;
10063;SDS011;5071;52.360;13.134;2023-04-12T07:06:36;7.43;;;1.50;;
10063;SDS011;5071;52.360;13.134;2023-04-12T07:11:38;2.53;;;1.20;;
10063;SDS011;5071;52.360;13.134;2023-04-12T07:16:42;1.47;;;1.20;;
10063;SDS011;5071;52.360;13.134;2023-04-12T07:21:44;2.17;;;0.83;;
10063;SDS011;5071;52.360;13.134;2023-04-12T07:26:47;4.90;;;0.70;;
10063;SDS011;5071;52.360;13.134;2023-04-12T07:31:50;2.10;;;0.90;;
10063;SDS011;5071;52.360;13.134;2023-04-12T07:36:53;2.67;;;0.90;;
10063;SDS011;5071;52.360;13.134;2023-04-12T07:41:55;1.30;;;0.90;;
10063;SDS011;5071;52.360;13.134;2023-04-12T07:46:59;3.00;;;0.63;;
10063;SDS011;5071;52.360;13.134;2023-04-12T07:52:01;1.33;;;0.80;;
10063;SDS011;5071;52.360;13.134;2023-04-12T07:57:03;1.23;;;0.60;;
10063;SDS011;5071;52.360;13.134;2023-04-12T08:02:07;2.87;;;0.73;;
10063;SDS011;5071;52.360;13.134;2023-04-12T08:07:12;2.83;;;0.80;;
10063;SDS011;5071;52.360;13.134;2023-04-12T08:12:14;0.80;;;0.63;;
10063;SDS011;5071;52.360;13.134;2023-04-12T08:17:18;2.27;;;0.73;;
10063;SDS011;5071;52.360;13.134;2023-04-12T08:22:20;2.13;;;0.80;;
10063;SDS011;5071;52.360;13.134;2023-04-12T08:27:22;2.83;;;0.90;;
10063;SDS011;5071;52.360;13.134;2023-04-12T08:32:26;3.00;;;0.80;;
10063;SDS011;5071;52.360;13.134;2023-04-12T08:37:28;2.53;;;0.97;;
10063;SDS011;5071;52.360;13.134;2023-04-12T08:42:31;1.43;;;0.67;;
10063;SDS011;5071;52.360;13.134;2023-04-12T08:47:36;2.00;;;0.70;;
10063;SDS011;5071;52.360;13.134;2023-04-12T08:52:39;3.33;;;0.80;;
10063;SDS011;5071;52.360;13.134;2023-04-12T08:57:41;2.43;;;0.60;;
10063;SDS011;5071;52.360;13.134;2023-04-12T09:02:45;1.00;;;0.57;;
10063;SDS011;5071;52.360;13.134;2023-04-12T09:07:48;4.03;;;0.77;;
10063;SDS011;5071;52.360;13.134;2023-04-12T09:12:49;1.77;;;0.80;;
10063;SDS011;5071;52.360;13.134;2023-04-12T09:18:04;1.90;;;0.80;;
10063;SDS011;5071;52.360;13.134;2023-04-12T09:23:17;2.70;;;0.60;;
10063;SDS011;5071;52.360;13.134;2023-04-12T09:28:22;2.40;;;0.90;;
10063;SDS011;5071;52.360;13.134;2023-04-12T09:33:32;2.17;;;0.93;;
10063;SDS011;5071;52.360;13.134;2023-04-12T09:38:36;2.27;;;0.80;;
10063;SDS011;5071;52.360;13.134;2023-04-12T09:43:38;3.50;;;1.10;;
10063;SDS011;5071;52.360;13.134;2023-04-12T09:48:47;1.00;;;0.83;;
10063;SDS011;5071;52.360;13.134;2023-04-12T09:53:50;3.03;;;1.00;;
10063;SDS011;5071;52.360;13.134;2023-04-12T09:58:53;1.90;;;1.23;;
10063;SDS011;5071;52.360;13.134;2023-04-12T10:03:59;2.37;;;0.97;;
10063;SDS011;5071;52.360;13.134;2023-04-12T10:09:02;0.63;;;0.50;;
10063;SDS011;5071;52.360;13.134;2023-04-12T10:14:07;4.40;;;1.17;;
10063;SDS011;5071;52.360;13.134;2023-04-12T10:19:12;3.47;;;0.90;;
10063;SDS011;5071;52.360;13.134;2023-04-12T10:24:15;2.57;;;0.80;;
10063;SDS011;5071;52.360;13.134;2023-04-12T10:29:21;2.92;;;0.82;;
10063;SDS011;5071;52.360;13.134;2023-04-12T10:34:29;1.17;;;1.00;;
10063;SDS011;5071;52.360;13.134;2023-04-12T10:39:39;2.60;;;0.88;;
10063;SDS011;5071;52.360;13.134;2023-04-12T10:44:42;1.37;;;0.70;;
10063;SDS011;5071;52.360;13.134;2023-04-12T10:55:30;3.17;;;0.80;;
10063;SDS011;5071;52.360;13.134;2023-04-12T11:06:07;1.60;;;0.80;;
10063;SDS011;5071;52.360;13.134;2023-04-12T11:11:30;3.40;;;0.90;;
10063;SDS011;5071;52.360;13.134;2023-04-12T11:22:11;1.73;;;0.70;;
10063;SDS011;5071;52.360;13.134;2023-04-12T11:27:16;1.60;;;0.80;;
10063;SDS011;5071;52.360;13.134;2023-04-12T11:32:20;3.10;;;0.80;;
10063;SDS011;5071;52.360;13.134;2023-04-12T11:37:23;1.97;;;0.97;;
10063;SDS011;5071;52.360;13.134;2023-04-12T11:42:28;6.57;;;1.47;;
10063;SDS011;5071;52.360;13.134;2023-04-12T11:47:30;4.20;;;1.20;;
10063;SDS011;5071;52.360;13.134;2023-04-12T11:52:32;1.57;;;0.77;;
10063;SDS011;5071;52.360;13.134;2023-04-12T11:57:36;1.03;;;0.60;;
10063;SDS011;5071;52.360;13.134;2023-04-12T12:02:39;1.47;;;0.60;;
10063;SDS011;5071;52.360;13.134;2023-04-12T12:08:01;2.20;;;1.20;;
10063;SDS011;5071;52.360;13.134;2023-04-12T12:13:09;4.20;;;0.77;;
10063;SDS011;5071;52.360;13.134;2023-04-12T12:18:11;1.10;;;0.60;;
10063;SDS011;5071;52.360;13.134;2023-04-12T12:23:25;2.97;;;0.90;;
10063;SDS011;5071;52.360;13.134;2023-04-12T12:28:30;1.47;;;0.80;;
10063;SDS011;5071;52.360;13.134;2023-04-12T12:33:38;2.80;;;1.00;;
10063;SDS011;5071;52.360;13.134;2023-04-12T12:38:51;1.67;;;0.73;;
10063;SDS011;5071;52.360;13.134;2023-04-12T12:43:55;1.83;;;0.77;;
10063;SDS011;5071;52.360;13.134;2023-04-12T12:48:58;1.90;;;0.77;;
10063;SDS011;5071;52.360;13.134;2023-04-12T12:54:01;2.27;;;0.90;;
10063;SDS011;5071;52.360;13.134;2023-04-12T12:59:06;2.50;;;0.90;;
10063;SDS011;5071;52.360;13.134;2023-04-12T13:04:12;1.60;;;0.90;;
10063;SDS011;5071;52.360;13.134;2023-04-12T13:09:14;2.73;;;0.80;;
10063;SDS011;5071;52.360;13.134;2023-04-12T13:14:21;3.47;;;0.80;;
10063;SDS011;5071;52.360;13.134;2023-04-12T13:19:23;3.17;;;0.90;;
10063;SDS011;5071;52.360;13.134;2023-04-12T13:24:25;2.80;;;1.30;;
10063;SDS011;5071;52.360;13.134;2023-04-12T13:29:28;2.63;;;0.90;;
10063;SDS011;5071;52.360;13.134;2023-04-12T13:34:31;2.90;;;0.80;;
10063;SDS011;5071;52.360;13.134;2023-04-12T13:39:33;3.13;;;0.93;;
10063;SDS011;5071;52.360;13.134;2023-04-12T13:44:37;3.33;;;0.90;;
10063;SDS011;5071;52.360;13.134;2023-04-12T13:49:39;1.77;;;0.60;;
10063;SDS011;5071;52.360;13.134;2023-04-12T13:54:41;2.73;;;0.80;;
10063;SDS011;5071;52.360;13.134;2023-04-12T13:59:45;1.83;;;0.80;;
10063;SDS011;5071;52.360;13.134;2023-04-12T14:04:50;2.97;;;0.70;;
10063;SDS011;5071;52.360;13.134;2023-04-12T14:09:54;1.73;;;0.60;;
10063;SDS011;5071;52.360;13.134;2023-04-12T14:15:03;1.97;;;0.83;;
10063;SDS011;5071;52.360;13.134;2023-04-12T14:20:07;0.50;;;0.50;;
10063;SDS011;5071;52.360;13.134;2023-04-12T14:25:10;3.00;;;0.83;;
10063;SDS011;5071;52.360;13.134;2023-04-12T14:30:13;3.20;;;0.90;;
10063;SDS011;5071;52.360;13.134;2023-04-12T14:35:19;3.07;;;0.90;;
10063;SDS011;5071;52.360;13.134;2023-04-12T14:40:21;0.83;;;0.70;;
10063;SDS011;5071;52.360;13.134;2023-04-12T14:45:24;1.47;;;1.07;;
10063;SDS011;5071;52.360;13.134;2023-04-12T14:50:27;2.73;;;1.00;;
10063;SDS011;5071;52.360;13.134;2023-04-12T14:55:29;2.80;;;1.37;;
10063;SDS011;5071;52.360;13.134;2023-04-12T15:00:34;3.47;;;0.83;;
10063;SDS011;5071;52.360;13.134;2023-04-12T15:05:36;2.90;;;1.10;;
10063;SDS011;5071;52.360;13.134;2023-04-12T15:10:39;1.67;;;0.90;;
10063;SDS011;5071;52.360;13.134;2023-04-12T15:15:42;4.27;;;1.10;;
10063;SDS011;5071;52.360;13.134;2023-04-12T15:20:44;1.70;;;1.00;;
10063;SDS011;5071;52.360;13.134;2023-04-12T15:25:45;1.37;;;0.90;;
10063;SDS011;5071;52.360;13.134;2023-04-12T15:30:49;4.77;;;1.03;;
10063;SDS011;5071;52.360;13.134;2023-04-12T15:35:52;3.10;;;1.10;;
10063;SDS011;5071;52.360;13.134;2023-04-12T15:40:55;1.07;;;0.93;;
10063;SDS011;5071;52.360;13.134;2023-04-12T15:45:59;3.27;;;1.30;;
10063;SDS011;5071;52.360;13.134;2023-04-12T15:51:02;2.77;;;1.30;;
10063;SDS011;5071;52.360;13.134;2023-04-12T15:56:04;3.90;;;1.17;;
10063;SDS011;5071;52.360;13.134;2023-04-12T16:01:08;2.80;;;1.20;;
10063;SDS011;5071;52.360;13.134;2023-04-12T16:06:11;1.80;;;1.30;;
10063;SDS011;5071;52.360;13.134;2023-04-12T16:11:16;3.30;;;1.27;;
10063;SDS011;5071;52.360;13.134;2023-04-12T16:16:20;2.80;;;1.53;;
10063;SDS011;5071;52.360;13.134;2023-04-12T16:21:24;2.30;;;1.57;;
10063;SDS011;5071;52.360;13.134;2023-04-12T16:26:26;4.83;;;1.53;;
10063;SDS011;5071;52.360;13.134;2023-04-12T16:31:30;2.10;;;1.27;;
10063;SDS011;5071;52.360;13.134;2023-04-12T16:36:32;3.30;;;1.20;;
10063;SDS011;5071;52.360;13.134;2023-04-12T16:41:34;1.77;;;0.87;;
10063;SDS011;5071;52.360;13.134;2023-04-12T16:46:37;1.80;;;1.10;;
10063;SDS011;5071;52.360;13.134;2023-04-12T16:51:39;3.07;;;1.43;;
10063;SDS011;5071;52.360;13.134;2023-04-12T16:56:42;2.20;;;1.27;;
10063;SDS011;5071;52.360;13.134;2023-04-12T17:01:50;1.50;;;1.40;;
10063;SDS011;5071;52.360;13.134;2023-04-12T17:06:52;1.67;;;1.10;;
10063;SDS011;5071;52.360;13.134;2023-04-12T17:11:54;2.00;;;1.40;;
10063;SDS011;5071;52.360;13.134;2023-04-12T17:16:58;6.00;;;1.43;;
10063;SDS011;5071;52.360;13.134;2023-04-12T17:22:00;1.30;;;1.20;;
10063;SDS011;5071;52.360;13.134;2023-04-12T17:27:02;4.03;;;1.30;;
10063;SDS011;5071;52.360;13.134;2023-04-12T17:32:05;3.37;;;1.57;;
10063;SDS011;5071;52.360;13.134;2023-04-12T17:37:07;1.40;;;1.07;;
10063;SDS011;5071;52.360;13.134;2023-04-12T17:42:09;3.97;;;1.40;;
10063;SDS011;5071;52.360;13.134;2023-04-12T17:47:12;1.53;;;1.23;;
10063;SDS011;5071;52.360;13.134;2023-04-12T17:52:15;1.80;;;1.30;;
10063;SDS011;5071;52.360;13.134;2023-04-12T17:57:17;2.77;;;1.33;;
10063;SDS011;5071;52.360;13.134;2023-04-12T18:02:21;3.60;;;1.20;;
10063;SDS011;5071;52.360;13.134;2023-04-12T18:07:23;2.43;;;1.50;;
10063;SDS011;5071;52.360;13.134;2023-04-12T18:12:25;1.53;;;1.30;;
10063;SDS011;5071;52.360;13.134;2023-04-12T18:17:28;4.00;;;1.50;;
10063;SDS011;5071;52.360;13.134;2023-04-12T18:22:30;2.13;;;1.63;;
10063;SDS011;5071;52.360;13.134;2023-04-12T18:27:33;2.80;;;1.70;;
10063;SDS011;5071;52.360;13.134;2023-04-12T18:32:36;1.73;;;1.37;;
10063;SDS011;5071;52.360;13.134;2023-04-12T18:37:38;1.70;;;1.40;;
10063;SDS011;5071;52.360;13.134;2023-04-12T18:42:41;2.40;;;1.60;;
10063;SDS011;5071;52.360;13.134;2023-04-12T18:47:49;2.03;;;1.60;;
10063;SDS011;5071;52.360;13.134;2023-04-12T18:52:51;5.60;;;1.90;;
10063;SDS011;5071;52.360;13.134;2023-04-12T18:57:54;3.00;;;1.60;;
10063;SDS011;5071;52.360;13.134;2023-04-12T19:02:58;2.67;;;1.60;;
10063;SDS011;5071;52.360;13.134;2023-04-12T19:08:01;1.77;;;1.50;;
10063;SDS011;5071;52.360;13.134;2023-04-12T19:13:04;1.97;;;1.30;;
10063;SDS011;5071;52.360;13.134;2023-04-12T19:18:07;3.53;;;1.43;;
10063;SDS011;5071;52.360;13.134;2023-04-12T19:23:09;2.13;;;1.50;;
10063;SDS011;5071;52.360;13.134;2023-04-12T19:28:11;1.60;;;1.30;;
10063;SDS011;5071;52.360;13.134;2023-04-12T19:33:15;2.17;;;1.47;;
10063;SDS011;5071;52.360;13.134;2023-04-12T19:38:18;2.30;;;1.47;;
10063;SDS011;5071;52.360;13.134;2023-04-12T19:43:19;2.27;;;1.23;;
10063;SDS011;5071;52.360;13.134;2023-04-12T19:48:23;2.77;;;1.07;;
10063;SDS011;5071;52.360;13.134;2023-04-12T19:53:26;4.20;;;1.40;;
10063;SDS011;5071;52.360;13.134;2023-04-12T19:58:28;3.23;;;1.73;;
10063;SDS011;5071;52.360;13.134;2023-04-12T20:03:31;1.73;;;1.33;;
10063;SDS011;5071;52.360;13.134;2023-04-12T20:08:33;2.33;;;1.40;;
10063;SDS011;5071;52.360;13.134;2023-04-12T20:13:37;3.80;;;1.63;;
10063;SDS011;5071;52.360;13.134;2023-04-12T20:18:40;2.27;;;1.77;;
10063;SDS011;5071;52.360;13.134;2023-04-12T20:23:42;1.50;;;1.30;;
10063;SDS011;5071;52.360;13.134;2023-04-12T20:28:44;3.40;;;1.83;;
10063;SDS011;5071;52.360;13.134;2023-04-12T20:33:47;1.60;;;1.43;;
10063;SDS011;5071;52.360;13.134;2023-04-12T20:38:49;2.60;;;1.80;;
10063;SDS011;5071;52.360;13.134;2023-04-12T20:43:52;4.77;;;2.00;;
10063;SDS011;5071;52.360;13.134;2023-04-12T20:48:55;1.63;;;1.50;;
10063;SDS011;5071;52.360;13.134;2023-04-12T20:53:58;3.00;;;1.90;;
10063;SDS011;5071;52.360;13.134;2023-04-12T20:59:00;3.03;;;1.70;;
10063;SDS011;5071;52.360;13.134;2023-04-12T21:04:03;2.30;;;1.80;;
10063;SDS011;5071;52.360;13.134;2023-04-12T21:09:05;4.10;;;2.10;;
10063;SDS011;5071;52.360;13.134;2023-04-12T21:14:07;4.53;;;2.10;;
10063;SDS011;5071;52.360;13.134;2023-04-12T21:19:10;4.63;;;2.00;;
10063;SDS011;5071;52.360;13.134;2023-04-12T21:24:12;2.73;;;1.90;;
10063;SDS011;5071;52.360;13.134;2023-04-12T21:29:14;4.00;;;2.07;;
10063;SDS011;5071;52.360;13.134;2023-04-12T21:34:18;4.07;;;2.17;;
10063;SDS011;5071;52.360;13.134;2023-04-12T21:39:20;4.10;;;2.30;;
10063;SDS011;5071;52.360;13.134;2023-04-12T21:44:22;3.07;;;2.50;;
10063;SDS011;5071;52.360;13.134;2023-04-12T21:49:25;2.90;;;2.27;;
10063;SDS011;5071;52.360;13.134;2023-04-12T21:54:26;4.43;;;2.87;;
10063;SDS011;5071;52.360;13.134;2023-04-12T21:59:28;5.73;;;2.90;;
10063;SDS011;5071;52.360;13.134;2023-04-12T22:04:32;3.63;;;2.50;;
10063;SDS011;5071;52.360;13.134;2023-04-12T22:09:34;3.03;;;2.73;;
10063;SDS011;5071;52.360;13.134;2023-04-12T22:14:35;3.40;;;2.50;;
10063;SDS011;5071;52.360;13.134;2023-04-12T22:19:39;3.37;;;2.73;;
10063;SDS011;5071;52.360;13.134;2023-04-12T22:24:41;4.67;;;3.33;;
10063;SDS011;5071;52.360;13.134;2023-04-12T22:29:43;4.57;;;3.27;;
10063;SDS011;5071;52.360;13.134;2023-04-12T22:34:46;5.07;;;3.80;;
10063;SDS011;5071;52.360;13.134;2023-04-12T22:40:02;6.70;;;3.97;;
10063;SDS011;5071;52.360;13.134;2023-04-12T22:45:04;4.33;;;3.07;;
10063;SDS011;5071;52.360;13.134;2023-04-12T22:50:08;3.17;;;2.87;;
10063;SDS011;5071;52.360;13.134;2023-04-12T22:55:10;2.87;;;2.53;;
10063;SDS011;5071;52.360;13.134;2023-04-12T23:00:13;5.87;;;3.00;;
10063;SDS011;5071;52.360;13.134;2023-04-12T23:05:19;4.33;;;3.30;;
10063;SDS011;5071;52.360;13.134;2023-04-12T23:10:21;3.60;;;2.63;;
10063;SDS011;5071;52.360;13.134;2023-04-12T23:15:23;5.50;;;2.87;;
10063;SDS011;5071;52.360;13.134;2023-04-12T23:20:26;4.93;;;3.20;;
10063;SDS011;5071;52.360;13.134;2023-04-12T23:25:29;3.17;;;2.83;;
10063;SDS011;5071;52.360;13.134;2023-04-12T23:30:32;7.27;;;3.73;;
10063;SDS011;5071;52.360;13.134;2023-04-12T23:35:35;7.63;;;3.63;;
10063;SDS011;5071;52.360;13.134;2023-04-12T23:40:37;4.93;;;4.07;;
10063;SDS011;5071;52.360;13.134;2023-04-12T23:45:39;4.90;;;4.13;;
10063;SDS011;5071;52.360;13.134;2023-04-12T23:50:43;6.70;;;4.50;;
10063;SDS011;5071;52.360;13.134;2023-04-12T23:55:46;6.73;;;4.30;;
